Flugplatz - Wetter - Augsburg

[Quelle: ADDS]
METAR
EDMA 201250Z 31008KT 9999 BKN042 10/03 Q1024 =
EDMA 201100Z 2012/2021 28005KT 9999 BKN035 BECMG 2016/2018 VRB03KT
TAF
EDMA 201100Z 2012/2021 28005KT 9999 BKN035 BECMG 2016/2018 VRB03KT =
SR / SS: 06:16 / 16:46 UTC (Augsburg 2019-02-20)

Flugplatz - Wetter - Laupheim

[Quelle: ADDS]
METAR
ETHL 201220Z 25005KT 9000 FEW028 BKN040 09/03 Q1024 BLU BLU =
COR ETHL 201117Z 2012/2021 24005KT 9999 NSW FEW020 SCT040 BKN180
TAF
COR ETHL 201117Z 2012/2021 24005KT 9999 NSW FEW020 SCT040 BKN180 =
SR / SS: 06:20 / 16:51 UTC (Laupheim 2019-02-20)

Flugplatz - Wetter - Memmingen

[Quelle: ADDS]
METAR
EDJA 201250Z VRB06KT 9999 SCT031 10/03 Q1024 =
EDJA 201100Z 2012/2021 23004KT 9999 SCT050
TAF
EDJA 201100Z 2012/2021 23004KT 9999 SCT050 =
SR / SS: 06:16 / 16:49 UTC (Memmingen 2019-02-20)

Flugplatz - Wetter - Neuburg/Donau

[Quelle: ADDS]
METAR
ETSN 201220Z 25004KT 9999 FEW020 SCT120 BKN150 09/03 Q1024 BLU BLU =
ETSN 201110Z 2012/2021 28004KT 9999 NSW BKN120 BY ETGL
TAF
ETSN 201110Z 2012/2021 28004KT 9999 NSW BKN120 BY ETGL =
SR / SS: 06:14 / 16:44 UTC (Neuburg 2019-02-20)

Flugplatz - Wetter - Stuttgart

[Quelle: ADDS]
METAR
EDDS 201250Z 03007KT 310V070 9999 SCT045 11/03 Q1024 NOSIG =
EDDS 201100Z 2012/2112 VRB03KT 9999 FEW040
TAF
EDDS 201100Z 2012/2112 VRB03KT 9999 FEW040 =
SR / SS: 06:22 / 16:52 UTC (Stuttgart 2019-02-20)

Flugplatz - Wetter - Niederstetten

[Quelle: ADDS]
METAR
ETHN 201220Z 28008KT 9999 FEW020 SCT140 BKN280 08/01 Q1024 BLU+BLU+ =
ETHN 201100Z 2012/2021 27005KT 9999 NSW FEW020 SCT100 BKN200
TAF
ETHN 201100Z 2012/2021 27005KT 9999 NSW FEW020 SCT100 BKN200 =
SR / SS: 06:21 / 16:49 UTC (Niederstetten 2019-02-20)